sensor_id;sensor_type;location;lat;lon;timestamp;temperature;humidity
29551;DHT22;16488;52.396;10.696;2023-05-27T00:02:05;8.40;99.90
29551;DHT22;16488;52.396;10.696;2023-05-27T00:04:30;8.10;99.90
29551;DHT22;16488;52.396;10.696;2023-05-27T00:06:56;8.00;99.90
29551;DHT22;16488;52.396;10.696;2023-05-27T00:09:21;7.80;99.90
29551;DHT22;16488;52.396;10.696;2023-05-27T00:11:47;7.70;99.90
29551;DHT22;16488;52.396;10.696;2023-05-27T00:14:13;7.70;99.90
29551;DHT22;16488;52.396;10.696;2023-05-27T00:16:38;7.70;99.90
29551;DHT22;16488;52.396;10.696;2023-05-27T00:19:04;7.70;99.90
29551;DHT22;16488;52.396;10.696;2023-05-27T00:21:30;7.60;99.90
29551;DHT22;16488;52.396;10.696;2023-05-27T00:23:56;7.60;99.90
29551;DHT22;16488;52.396;10.696;2023-05-27T00:26:23;7.50;99.90
29551;DHT22;16488;52.396;10.696;2023-05-27T00:28:49;7.40;99.90
29551;DHT22;16488;52.396;10.696;2023-05-27T00:31:14;7.30;99.90
29551;DHT22;16488;52.396;10.696;2023-05-27T00:33:40;7.20;99.90
29551;DHT22;16488;52.396;10.696;2023-05-27T00:36:06;7.20;99.90
29551;DHT22;16488;52.396;10.696;2023-05-27T00:38:32;7.20;99.90
29551;DHT22;16488;52.396;10.696;2023-05-27T00:41:00;7.10;99.90
29551;DHT22;16488;52.396;10.696;2023-05-27T00:43:26;7.20;99.90
29551;DHT22;16488;52.396;10.696;2023-05-27T00:45:52;7.10;99.90
29551;DHT22;16488;52.396;10.696;2023-05-27T00:48:18;7.10;99.90
29551;DHT22;16488;52.396;10.696;2023-05-27T00:50:43;7.00;99.90
29551;DHT22;16488;52.396;10.696;2023-05-27T00:53:09;7.00;99.90
29551;DHT22;16488;52.396;10.696;2023-05-27T00:55:35;7.00;99.90
29551;DHT22;16488;52.396;10.696;2023-05-27T00:58:01;6.90;99.90
29551;DHT22;16488;52.396;10.696;2023-05-27T01:00:29;6.90;99.90
29551;DHT22;16488;52.396;10.696;2023-05-27T01:02:55;6.80;99.90
29551;DHT22;16488;52.396;10.696;2023-05-27T01:05:21;6.70;99.90
29551;DHT22;16488;52.396;10.696;2023-05-27T01:07:54;6.70;99.90
29551;DHT22;16488;52.396;10.696;2023-05-27T01:10:45;6.60;99.90
29551;DHT22;16488;52.396;10.696;2023-05-27T01:13:39;6.60;99.90
29551;DHT22;16488;52.396;10.696;2023-05-27T01:16:11;6.60;99.90
29551;DHT22;16488;52.396;10.696;2023-05-27T01:18:40;6.60;99.90
29551;DHT22;16488;52.396;10.696;2023-05-27T01:21:14;6.60;99.90
29551;DHT22;16488;52.396;10.696;2023-05-27T01:23:46;6.50;99.90
29551;DHT22;16488;52.396;10.696;2023-05-27T01:26:12;6.60;99.90
29551;DHT22;16488;52.396;10.696;2023-05-27T01:28:38;6.60;99.90
29551;DHT22;16488;52.396;10.696;2023-05-27T01:31:18;6.60;99.90
29551;DHT22;16488;52.396;10.696;2023-05-27T01:33:49;6.70;99.90
29551;DHT22;16488;52.396;10.696;2023-05-27T01:36:22;6.60;99.90
29551;DHT22;16488;52.396;10.696;2023-05-27T01:38:51;6.60;99.90
29551;DHT22;16488;52.396;10.696;2023-05-27T01:41:18;6.50;99.90
29551;DHT22;16488;52.396;10.696;2023-05-27T01:43:45;6.40;99.90
29551;DHT22;16488;52.396;10.696;2023-05-27T01:46:11;6.40;99.90
29551;DHT22;16488;52.396;10.696;2023-05-27T01:48:36;6.40;99.90
29551;DHT22;16488;52.396;10.696;2023-05-27T01:51:02;6.40;99.90
29551;DHT22;16488;52.396;10.696;2023-05-27T01:53:28;6.20;99.90
29551;DHT22;16488;52.396;10.696;2023-05-27T01:55:53;6.10;99.90
29551;DHT22;16488;52.396;10.696;2023-05-27T01:58:19;6.00;99.90
29551;DHT22;16488;52.396;10.696;2023-05-27T02:00:44;6.10;99.90
29551;DHT22;16488;52.396;10.696;2023-05-27T02:03:10;6.10;99.90
29551;DHT22;16488;52.396;10.696;2023-05-27T02:05:36;6.10;99.90
29551;DHT22;16488;52.396;10.696;2023-05-27T02:08:02;6.20;99.90
29551;DHT22;16488;52.396;10.696;2023-05-27T02:10:28;6.20;99.90
29551;DHT22;16488;52.396;10.696;2023-05-27T02:12:54;6.10;99.90
29551;DHT22;16488;52.396;10.696;2023-05-27T02:15:19;6.30;99.90
29551;DHT22;16488;52.396;10.696;2023-05-27T02:17:49;6.40;99.90
29551;DHT22;16488;52.396;10.696;2023-05-27T02:20:23;6.40;99.90
29551;DHT22;16488;52.396;10.696;2023-05-27T02:22:52;6.20;99.90
29551;DHT22;16488;52.396;10.696;2023-05-27T02:25:18;6.00;99.90
29551;DHT22;16488;52.396;10.696;2023-05-27T02:27:44;5.90;99.90
29551;DHT22;16488;52.396;10.696;2023-05-27T02:30:14;5.90;99.90
29551;DHT22;16488;52.396;10.696;2023-05-27T02:32:40;5.80;99.90
29551;DHT22;16488;52.396;10.696;2023-05-27T02:35:06;5.80;99.90
29551;DHT22;16488;52.396;10.696;2023-05-27T02:37:33;5.80;99.90
29551;DHT22;16488;52.396;10.696;2023-05-27T02:39:58;5.80;99.90
29551;DHT22;16488;52.396;10.696;2023-05-27T02:42:24;5.70;99.90
29551;DHT22;16488;52.396;10.696;2023-05-27T02:44:50;5.60;99.90
29551;DHT22;16488;52.396;10.696;2023-05-27T02:47:15;5.50;99.90
29551;DHT22;16488;52.396;10.696;2023-05-27T02:49:41;5.30;99.90
29551;DHT22;16488;52.396;10.696;2023-05-27T02:52:06;5.30;99.90
29551;DHT22;16488;52.396;10.696;2023-05-27T02:54:32;5.20;99.90
29551;DHT22;16488;52.396;10.696;2023-05-27T02:56:57;5.20;99.90
29551;DHT22;16488;52.396;10.696;2023-05-27T02:59:23;5.20;99.90
29551;DHT22;16488;52.396;10.696;2023-05-27T03:01:48;5.20;99.90
29551;DHT22;16488;52.396;10.696;2023-05-27T03:04:14;5.20;99.90
29551;DHT22;16488;52.396;10.696;2023-05-27T03:06:41;5.20;99.90
29551;DHT22;16488;52.396;10.696;2023-05-27T03:09:07;5.30;99.90
29551;DHT22;16488;52.396;10.696;2023-05-27T03:11:33;5.30;99.90
29551;DHT22;16488;52.396;10.696;2023-05-27T03:13:58;5.30;99.90
29551;DHT22;16488;52.396;10.696;2023-05-27T03:16:24;5.30;99.90
29551;DHT22;16488;52.396;10.696;2023-05-27T03:18:50;5.30;99.90
29551;DHT22;16488;52.396;10.696;2023-05-27T03:21:16;5.30;99.90
29551;DHT22;16488;52.396;10.696;2023-05-27T03:23:41;5.30;99.90
29551;DHT22;16488;52.396;10.696;2023-05-27T03:26:07;5.40;99.90
29551;DHT22;16488;52.396;10.696;2023-05-27T03:28:32;5.30;99.90
29551;DHT22;16488;52.396;10.696;2023-05-27T03:30:58;5.40;99.90
29551;DHT22;16488;52.396;10.696;2023-05-27T03:33:24;5.30;99.90
29551;DHT22;16488;52.396;10.696;2023-05-27T03:35:50;5.30;99.90
29551;DHT22;16488;52.396;10.696;2023-05-27T03:38:16;5.30;99.90
29551;DHT22;16488;52.396;10.696;2023-05-27T03:40:41;5.30;99.90
29551;DHT22;16488;52.396;10.696;2023-05-27T03:43:07;5.30;99.90
29551;DHT22;16488;52.396;10.696;2023-05-27T03:45:33;5.20;99.90
29551;DHT22;16488;52.396;10.696;2023-05-27T03:47:58;5.20;99.90
29551;DHT22;16488;52.396;10.696;2023-05-27T03:50:24;5.20;99.90
29551;DHT22;16488;52.396;10.696;2023-05-27T03:52:49;5.10;99.90
29551;DHT22;16488;52.396;10.696;2023-05-27T03:55:16;5.10;99.90
29551;DHT22;16488;52.396;10.696;2023-05-27T03:57:46;5.10;99.90
29551;DHT22;16488;52.396;10.696;2023-05-27T04:00:12;5.20;99.90
29551;DHT22;16488;52.396;10.696;2023-05-27T04:02:38;5.20;99.90
29551;DHT22;16488;52.396;10.696;2023-05-27T04:05:04;5.20;99.90
29551;DHT22;16488;52.396;10.696;2023-05-27T04:07:30;5.20;99.90
29551;DHT22;16488;52.396;10.696;2023-05-27T04:09:57;5.20;99.90
29551;DHT22;16488;52.396;10.696;2023-05-27T04:12:23;5.30;99.90
29551;DHT22;16488;52.396;10.696;2023-05-27T04:14:48;5.30;99.90
29551;DHT22;16488;52.396;10.696;2023-05-27T04:17:14;5.40;99.90
29551;DHT22;16488;52.396;10.696;2023-05-27T04:19:39;5.40;99.90
29551;DHT22;16488;52.396;10.696;2023-05-27T04:22:05;5.40;99.90
29551;DHT22;16488;52.396;10.696;2023-05-27T04:24:31;5.60;99.90
29551;DHT22;16488;52.396;10.696;2023-05-27T04:26:57;5.70;99.90
29551;DHT22;16488;52.396;10.696;2023-05-27T04:29:23;6.10;99.90
29551;DHT22;16488;52.396;10.696;2023-05-27T04:31:48;6.10;99.90
29551;DHT22;16488;52.396;10.696;2023-05-27T04:34:14;6.10;99.90
29551;DHT22;16488;52.396;10.696;2023-05-27T04:36:40;6.10;99.90
29551;DHT22;16488;52.396;10.696;2023-05-27T04:39:05;6.10;99.90
29551;DHT22;16488;52.396;10.696;2023-05-27T04:41:33;6.10;99.90
29551;DHT22;16488;52.396;10.696;2023-05-27T04:43:59;6.10;99.90
29551;DHT22;16488;52.396;10.696;2023-05-27T04:46:27;6.20;99.90
29551;DHT22;16488;52.396;10.696;2023-05-27T04:48:53;6.30;99.90
29551;DHT22;16488;52.396;10.696;2023-05-27T04:51:19;6.40;99.90
29551;DHT22;16488;52.396;10.696;2023-05-27T04:53:45;6.60;99.90
29551;DHT22;16488;52.396;10.696;2023-05-27T04:56:13;6.70;99.90
29551;DHT22;16488;52.396;10.696;2023-05-27T04:58:40;6.80;99.90
29551;DHT22;16488;52.396;10.696;2023-05-27T05:01:08;6.90;99.90
29551;DHT22;16488;52.396;10.696;2023-05-27T05:03:45;6.90;99.90
29551;DHT22;16488;52.396;10.696;2023-05-27T05:06:39;7.10;99.90
29551;DHT22;16488;52.396;10.696;2023-05-27T05:09:05;7.20;99.90
29551;DHT22;16488;52.396;10.696;2023-05-27T05:11:31;7.30;99.90
29551;DHT22;16488;52.396;10.696;2023-05-27T05:13:56;7.40;99.90
29551;DHT22;16488;52.396;10.696;2023-05-27T05:16:22;7.50;99.90
29551;DHT22;16488;52.396;10.696;2023-05-27T05:18:48;7.60;99.90
29551;DHT22;16488;52.396;10.696;2023-05-27T05:21:13;7.70;99.90
29551;DHT22;16488;52.396;10.696;2023-05-27T05:23:39;7.90;99.90
29551;DHT22;16488;52.396;10.696;2023-05-27T05:26:05;8.10;99.90
29551;DHT22;16488;52.396;10.696;2023-05-27T05:28:33;8.20;99.90
29551;DHT22;16488;52.396;10.696;2023-05-27T05:31:00;8.40;99.90
29551;DHT22;16488;52.396;10.696;2023-05-27T05:33:26;8.50;99.90
29551;DHT22;16488;52.396;10.696;2023-05-27T05:35:51;8.70;99.90
29551;DHT22;16488;52.396;10.696;2023-05-27T05:38:17;8.80;99.90
29551;DHT22;16488;52.396;10.696;2023-05-27T05:40:43;8.90;99.90
29551;DHT22;16488;52.396;10.696;2023-05-27T05:43:13;9.10;99.90
29551;DHT22;16488;52.396;10.696;2023-05-27T05:45:39;9.10;99.90
29551;DHT22;16488;52.396;10.696;2023-05-27T05:48:05;9.30;99.90
29551;DHT22;16488;52.396;10.696;2023-05-27T05:50:30;9.40;99.90
29551;DHT22;16488;52.396;10.696;2023-05-27T05:52:56;9.60;99.90
29551;DHT22;16488;52.396;10.696;2023-05-27T05:55:22;9.70;99.90
29551;DHT22;16488;52.396;10.696;2023-05-27T05:57:47;9.90;99.90
29551;DHT22;16488;52.396;10.696;2023-05-27T06:00:13;10.00;99.90
29551;DHT22;16488;52.396;10.696;2023-05-27T06:02:39;10.20;99.90
29551;DHT22;16488;52.396;10.696;2023-05-27T06:05:05;10.20;99.90
29551;DHT22;16488;52.396;10.696;2023-05-27T06:07:31;10.30;99.90
29551;DHT22;16488;52.396;10.696;2023-05-27T06:09:56;10.50;99.90
29551;DHT22;16488;52.396;10.696;2023-05-27T06:12:22;10.70;99.90
29551;DHT22;16488;52.396;10.696;2023-05-27T06:14:48;10.80;99.90
29551;DHT22;16488;52.396;10.696;2023-05-27T06:17:13;10.90;99.90
29551;DHT22;16488;52.396;10.696;2023-05-27T06:19:39;11.00;99.90
29551;DHT22;16488;52.396;10.696;2023-05-27T06:22:05;11.10;99.90
29551;DHT22;16488;52.396;10.696;2023-05-27T06:24:31;11.30;99.90
29551;DHT22;16488;52.396;10.696;2023-05-27T06:26:57;11.40;99.90
29551;DHT22;16488;52.396;10.696;2023-05-27T06:29:22;11.50;99.90
29551;DHT22;16488;52.396;10.696;2023-05-27T06:31:48;11.60;99.90
29551;DHT22;16488;52.396;10.696;2023-05-27T06:34:15;11.60;99.90
29551;DHT22;16488;52.396;10.696;2023-05-27T06:36:41;11.80;99.90
29551;DHT22;16488;52.396;10.696;2023-05-27T06:39:06;11.90;99.90
29551;DHT22;16488;52.396;10.696;2023-05-27T06:41:32;12.00;99.90
29551;DHT22;16488;52.396;10.696;2023-05-27T06:43:57;12.10;99.90
29551;DHT22;16488;52.396;10.696;2023-05-27T06:46:23;12.20;99.90
29551;DHT22;16488;52.396;10.696;2023-05-27T06:48:49;12.30;99.90
29551;DHT22;16488;52.396;10.696;2023-05-27T06:51:15;12.40;99.90
29551;DHT22;16488;52.396;10.696;2023-05-27T06:53:41;12.60;99.90
29551;DHT22;16488;52.396;10.696;2023-05-27T06:56:06;12.60;99.90
29551;DHT22;16488;52.396;10.696;2023-05-27T06:58:32;12.70;99.90
29551;DHT22;16488;52.396;10.696;2023-05-27T07:00:58;12.80;99.90
29551;DHT22;16488;52.396;10.696;2023-05-27T07:03:23;12.90;99.90
29551;DHT22;16488;52.396;10.696;2023-05-27T07:05:49;12.90;99.90
29551;DHT22;16488;52.396;10.696;2023-05-27T07:08:14;12.90;99.90
29551;DHT22;16488;52.396;10.696;2023-05-27T07:10:40;13.00;99.90
29551;DHT22;16488;52.396;10.696;2023-05-27T07:13:06;13.10;99.90
29551;DHT22;16488;52.396;10.696;2023-05-27T07:15:31;13.20;99.90
29551;DHT22;16488;52.396;10.696;2023-05-27T07:17:57;13.30;99.90
29551;DHT22;16488;52.396;10.696;2023-05-27T07:20:23;13.20;99.90
29551;DHT22;16488;52.396;10.696;2023-05-27T07:22:49;13.30;99.90
29551;DHT22;16488;52.396;10.696;2023-05-27T07:25:15;13.50;99.90
29551;DHT22;16488;52.396;10.696;2023-05-27T07:27:40;13.50;99.90
29551;DHT22;16488;52.396;10.696;2023-05-27T07:30:06;13.60;99.90
29551;DHT22;16488;52.396;10.696;2023-05-27T07:32:33;13.60;99.90
29551;DHT22;16488;52.396;10.696;2023-05-27T07:34:59;13.70;99.90
29551;DHT22;16488;52.396;10.696;2023-05-27T07:37:26;13.80;99.90
29551;DHT22;16488;52.396;10.696;2023-05-27T07:39:52;13.90;99.90
29551;DHT22;16488;52.396;10.696;2023-05-27T07:42:18;14.00;99.90
29551;DHT22;16488;52.396;10.696;2023-05-27T07:44:43;14.10;99.90
29551;DHT22;16488;52.396;10.696;2023-05-27T07:47:09;14.20;99.90
29551;DHT22;16488;52.396;10.696;2023-05-27T07:49:34;14.20;99.90
29551;DHT22;16488;52.396;10.696;2023-05-27T07:52:00;14.30;99.90
29551;DHT22;16488;52.396;10.696;2023-05-27T07:54:25;14.40;99.90
29551;DHT22;16488;52.396;10.696;2023-05-27T07:56:52;14.50;99.90
29551;DHT22;16488;52.396;10.696;2023-05-27T07:59:18;14.60;99.90
29551;DHT22;16488;52.396;10.696;2023-05-27T08:01:44;14.60;99.90
29551;DHT22;16488;52.396;10.696;2023-05-27T08:04:09;14.60;99.90
29551;DHT22;16488;52.396;10.696;2023-05-27T08:06:36;14.70;99.90
29551;DHT22;16488;52.396;10.696;2023-05-27T08:09:02;14.70;99.90
29551;DHT22;16488;52.396;10.696;2023-05-27T08:11:29;14.80;99.90
29551;DHT22;16488;52.396;10.696;2023-05-27T08:13:55;14.80;99.90
29551;DHT22;16488;52.396;10.696;2023-05-27T08:16:21;15.00;99.90
29551;DHT22;16488;52.396;10.696;2023-05-27T08:18:46;15.00;99.90
29551;DHT22;16488;52.396;10.696;2023-05-27T08:21:12;15.10;99.90
29551;DHT22;16488;52.396;10.696;2023-05-27T08:23:38;15.10;99.90
29551;DHT22;16488;52.396;10.696;2023-05-27T08:26:04;15.30;99.90
29551;DHT22;16488;52.396;10.696;2023-05-27T08:28:29;15.60;99.90
29551;DHT22;16488;52.396;10.696;2023-05-27T08:30:55;15.60;99.90
29551;DHT22;16488;52.396;10.696;2023-05-27T08:33:21;15.60;99.90
29551;DHT22;16488;52.396;10.696;2023-05-27T08:35:48;15.60;99.90
29551;DHT22;16488;52.396;10.696;2023-05-27T08:38:14;15.50;99.90
29551;DHT22;16488;52.396;10.696;2023-05-27T08:40:39;15.60;99.90
29551;DHT22;16488;52.396;10.696;2023-05-27T08:43:06;15.70;99.90
29551;DHT22;16488;52.396;10.696;2023-05-27T08:45:32;15.80;99.90
29551;DHT22;16488;52.396;10.696;2023-05-27T08:47:59;15.80;99.90
29551;DHT22;16488;52.396;10.696;2023-05-27T08:50:25;15.90;99.90
29551;DHT22;16488;52.396;10.696;2023-05-27T08:52:54;16.00;99.90
29551;DHT22;16488;52.396;10.696;2023-05-27T08:55:21;16.10;99.90
29551;DHT22;16488;52.396;10.696;2023-05-27T08:57:55;16.20;99.90
29551;DHT22;16488;52.396;10.696;2023-05-27T09:00:22;16.40;99.90
29551;DHT22;16488;52.396;10.696;2023-05-27T09:02:48;16.40;99.90
29551;DHT22;16488;52.396;10.696;2023-05-27T09:05:15;16.40;99.90
29551;DHT22;16488;52.396;10.696;2023-05-27T09:07:45;16.30;99.90
29551;DHT22;16488;52.396;10.696;2023-05-27T09:10:10;16.30;99.90
29551;DHT22;16488;52.396;10.696;2023-05-27T09:12:36;16.30;99.90
29551;DHT22;16488;52.396;10.696;2023-05-27T09:15:05;16.20;99.90
29551;DHT22;16488;52.396;10.696;2023-05-27T09:17:31;16.30;99.90
29551;DHT22;16488;52.396;10.696;2023-05-27T09:19:57;16.50;99.90
29551;DHT22;16488;52.396;10.696;2023-05-27T09:22:30;16.50;99.80
29551;DHT22;16488;52.396;10.696;2023-05-27T09:24:56;16.60;99.90
29551;DHT22;16488;52.396;10.696;2023-05-27T09:27:30;16.60;99.90
29551;DHT22;16488;52.396;10.696;2023-05-27T09:29:57;16.60;99.90
29551;DHT22;16488;52.396;10.696;2023-05-27T09:32:30;16.60;99.90
29551;DHT22;16488;52.396;10.696;2023-05-27T09:34:57;16.70;99.90
29551;DHT22;16488;52.396;10.696;2023-05-27T09:37:27;16.80;99.90
29551;DHT22;16488;52.396;10.696;2023-05-27T09:40:06;16.80;99.90
29551;DHT22;16488;52.396;10.696;2023-05-27T09:42:42;16.80;99.90
29551;DHT22;16488;52.396;10.696;2023-05-27T09:45:11;16.70;99.90
29551;DHT22;16488;52.396;10.696;2023-05-27T09:47:39;16.60;99.80
29551;DHT22;16488;52.396;10.696;2023-05-27T09:50:07;16.70;99.10
29551;DHT22;16488;52.396;10.696;2023-05-27T09:52:36;16.60;99.00
29551;DHT22;16488;52.396;10.696;2023-05-27T09:55:04;16.70;99.50
29551;DHT22;16488;52.396;10.696;2023-05-27T09:57:31;16.90;99.90
29551;DHT22;16488;52.396;10.696;2023-05-27T09:59:59;17.00;99.80
29551;DHT22;16488;52.396;10.696;2023-05-27T10:02:25;17.10;99.90
29551;DHT22;16488;52.396;10.696;2023-05-27T10:04:53;17.20;98.70
29551;DHT22;16488;52.396;10.696;2023-05-27T10:07:19;17.20;98.50
29551;DHT22;16488;52.396;10.696;2023-05-27T10:09:47;17.20;97.90
29551;DHT22;16488;52.396;10.696;2023-05-27T10:12:14;17.00;97.50
29551;DHT22;16488;52.396;10.696;2023-05-27T10:14:41;17.10;98.80
29551;DHT22;16488;52.396;10.696;2023-05-27T10:17:09;17.20;98.70
29551;DHT22;16488;52.396;10.696;2023-05-27T10:19:35;17.20;97.50
29551;DHT22;16488;52.396;10.696;2023-05-27T10:22:10;17.30;97.70
29551;DHT22;16488;52.396;10.696;2023-05-27T10:24:35;17.40;97.30
29551;DHT22;16488;52.396;10.696;2023-05-27T10:27:01;17.40;96.50
29551;DHT22;16488;52.396;10.696;2023-05-27T10:29:38;17.50;97.50
29551;DHT22;16488;52.396;10.696;2023-05-27T10:32:04;17.60;95.90
29551;DHT22;16488;52.396;10.696;2023-05-27T10:34:36;17.60;96.00
29551;DHT22;16488;52.396;10.696;2023-05-27T10:37:03;17.70;96.60
29551;DHT22;16488;52.396;10.696;2023-05-27T10:39:29;17.70;95.80
29551;DHT22;16488;52.396;10.696;2023-05-27T10:41:55;17.60;95.30
29551;DHT22;16488;52.396;10.696;2023-05-27T10:44:48;17.80;96.00
29551;DHT22;16488;52.396;10.696;2023-05-27T10:47:14;17.80;93.60
29551;DHT22;16488;52.396;10.696;2023-05-27T10:49:44;17.80;93.50
29551;DHT22;16488;52.396;10.696;2023-05-27T10:52:16;17.70;93.70
29551;DHT22;16488;52.396;10.696;2023-05-27T10:54:48;17.90;93.90
29551;DHT22;16488;52.396;10.696;2023-05-27T10:57:17;18.00;93.80
29551;DHT22;16488;52.396;10.696;2023-05-27T10:59:48;17.80;93.00
29551;DHT22;16488;52.396;10.696;2023-05-27T11:02:15;17.80;92.60
29551;DHT22;16488;52.396;10.696;2023-05-27T11:04:41;17.80;93.30
29551;DHT22;16488;52.396;10.696;2023-05-27T11:07:07;18.00;93.60
29551;DHT22;16488;52.396;10.696;2023-05-27T11:09:46;18.20;94.20
29551;DHT22;16488;52.396;10.696;2023-05-27T11:12:17;18.20;94.60
29551;DHT22;16488;52.396;10.696;2023-05-27T11:14:48;18.20;93.40
29551;DHT22;16488;52.396;10.696;2023-05-27T11:17:14;18.20;93.10
29551;DHT22;16488;52.396;10.696;2023-05-27T11:19:40;18.30;94.40
29551;DHT22;16488;52.396;10.696;2023-05-27T11:22:09;18.40;93.40
29551;DHT22;16488;52.396;10.696;2023-05-27T11:24:36;18.60;93.90
29551;DHT22;16488;52.396;10.696;2023-05-27T11:27:12;18.60;92.60
29551;DHT22;16488;52.396;10.696;2023-05-27T11:29:38;18.60;92.50
29551;DHT22;16488;52.396;10.696;2023-05-27T11:32:06;18.50;91.90
29551;DHT22;16488;52.396;10.696;2023-05-27T11:34:35;18.40;93.20
29551;DHT22;16488;52.396;10.696;2023-05-27T11:37:04;18.40;92.50
29551;DHT22;16488;52.396;10.696;2023-05-27T11:39:30;18.40;91.50
29551;DHT22;16488;52.396;10.696;2023-05-27T11:41:56;18.40;92.30
29551;DHT22;16488;52.396;10.696;2023-05-27T11:44:24;18.40;92.20
29551;DHT22;16488;52.396;10.696;2023-05-27T11:46:51;18.50;92.20
29551;DHT22;16488;52.396;10.696;2023-05-27T11:49:18;18.70;92.30
29551;DHT22;16488;52.396;10.696;2023-05-27T11:51:47;18.70;90.60
29551;DHT22;16488;52.396;10.696;2023-05-27T11:54:22;18.90;92.40
29551;DHT22;16488;52.396;10.696;2023-05-27T11:56:48;19.10;91.60
29551;DHT22;16488;52.396;10.696;2023-05-27T11:59:14;19.10;90.00
29551;DHT22;16488;52.396;10.696;2023-05-27T12:01:41;19.20;89.90
29551;DHT22;16488;52.396;10.696;2023-05-27T12:04:06;19.30;90.80
29551;DHT22;16488;52.396;10.696;2023-05-27T12:06:32;19.20;89.10
29551;DHT22;16488;52.396;10.696;2023-05-27T12:08:58;19.20;88.60
29551;DHT22;16488;52.396;10.696;2023-05-27T12:11:24;19.40;89.20
29551;DHT22;16488;52.396;10.696;2023-05-27T12:13:52;19.40;86.30
29551;DHT22;16488;52.396;10.696;2023-05-27T12:16:18;19.40;88.30
29551;DHT22;16488;52.396;10.696;2023-05-27T12:18:44;19.50;88.50
29551;DHT22;16488;52.396;10.696;2023-05-27T12:21:10;19.30;89.30
29551;DHT22;16488;52.396;10.696;2023-05-27T12:23:36;19.40;90.10
29551;DHT22;16488;52.396;10.696;2023-05-27T12:26:02;19.40;86.60
29551;DHT22;16488;52.396;10.696;2023-05-27T12:28:28;19.40;84.60
29551;DHT22;16488;52.396;10.696;2023-05-27T12:30:54;19.60;85.80
29551;DHT22;16488;52.396;10.696;2023-05-27T12:33:20;19.60;84.90
29551;DHT22;16488;52.396;10.696;2023-05-27T12:35:46;19.70;84.90
29551;DHT22;16488;52.396;10.696;2023-05-27T12:38:12;19.60;84.80
29551;DHT22;16488;52.396;10.696;2023-05-27T12:40:37;19.70;85.10
29551;DHT22;16488;52.396;10.696;2023-05-27T12:43:03;19.50;84.50
29551;DHT22;16488;52.396;10.696;2023-05-27T12:45:29;19.60;86.20
29551;DHT22;16488;52.396;10.696;2023-05-27T12:47:55;19.70;87.60
29551;DHT22;16488;52.396;10.696;2023-05-27T12:50:22;19.80;86.70
29551;DHT22;16488;52.396;10.696;2023-05-27T12:52:49;19.80;85.20
29551;DHT22;16488;52.396;10.696;2023-05-27T12:55:16;19.70;83.60
29551;DHT22;16488;52.396;10.696;2023-05-27T12:57:52;19.60;85.90
29551;DHT22;16488;52.396;10.696;2023-05-27T13:00:19;19.50;83.20
29551;DHT22;16488;52.396;10.696;2023-05-27T13:02:46;19.40;84.30
29551;DHT22;16488;52.396;10.696;2023-05-27T13:05:17;19.50;86.30
29551;DHT22;16488;52.396;10.696;2023-05-27T13:07:57;19.60;84.60
29551;DHT22;16488;52.396;10.696;2023-05-27T13:10:23;19.80;84.60
29551;DHT22;16488;52.396;10.696;2023-05-27T13:12:49;19.90;83.10
29551;DHT22;16488;52.396;10.696;2023-05-27T13:15:15;19.90;84.10
29551;DHT22;16488;52.396;10.696;2023-05-27T13:18:04;19.90;84.20
29551;DHT22;16488;52.396;10.696;2023-05-27T13:20:32;19.90;83.30
29551;DHT22;16488;52.396;10.696;2023-05-27T13:22:58;20.00;82.80
29551;DHT22;16488;52.396;10.696;2023-05-27T13:25:28;19.80;82.90
29551;DHT22;16488;52.396;10.696;2023-05-27T13:28:13;19.90;85.00
29551;DHT22;16488;52.396;10.696;2023-05-27T13:30:39;20.00;85.20
29551;DHT22;16488;52.396;10.696;2023-05-27T13:33:25;20.10;82.60
29551;DHT22;16488;52.396;10.696;2023-05-27T13:35:50;20.10;82.20
29551;DHT22;16488;52.396;10.696;2023-05-27T13:38:16;19.90;81.30
29551;DHT22;16488;52.396;10.696;2023-05-27T13:40:42;20.00;81.80
29551;DHT22;16488;52.396;10.696;2023-05-27T13:43:07;20.00;85.60
29551;DHT22;16488;52.396;10.696;2023-05-27T13:45:33;20.00;84.40
29551;DHT22;16488;52.396;10.696;2023-05-27T13:47:59;20.20;85.70
29551;DHT22;16488;52.396;10.696;2023-05-27T13:50:24;20.30;84.60
29551;DHT22;16488;52.396;10.696;2023-05-27T13:52:50;20.40;82.20
29551;DHT22;16488;52.396;10.696;2023-05-27T13:55:16;20.40;84.50
29551;DHT22;16488;52.396;10.696;2023-05-27T13:57:41;20.50;80.00
29551;DHT22;16488;52.396;10.696;2023-05-27T14:00:09;20.50;78.00
29551;DHT22;16488;52.396;10.696;2023-05-27T14:02:34;20.40;79.20
29551;DHT22;16488;52.396;10.696;2023-05-27T14:05:00;20.30;79.70
29551;DHT22;16488;52.396;10.696;2023-05-27T14:07:28;20.20;80.50
29551;DHT22;16488;52.396;10.696;2023-05-27T14:09:54;20.20;80.00
29551;DHT22;16488;52.396;10.696;2023-05-27T14:12:19;20.30;79.20
29551;DHT22;16488;52.396;10.696;2023-05-27T14:14:45;20.40;81.70
29551;DHT22;16488;52.396;10.696;2023-05-27T14:17:11;20.50;84.30
29551;DHT22;16488;52.396;10.696;2023-05-27T14:19:36;20.60;80.30
29551;DHT22;16488;52.396;10.696;2023-05-27T14:22:03;20.70;79.40
29551;DHT22;16488;52.396;10.696;2023-05-27T14:24:28;20.80;78.40
29551;DHT22;16488;52.396;10.696;2023-05-27T14:26:55;20.80;78.10
29551;DHT22;16488;52.396;10.696;2023-05-27T14:29:21;20.80;79.80
29551;DHT22;16488;52.396;10.696;2023-05-27T14:31:46;20.90;78.80
29551;DHT22;16488;52.396;10.696;2023-05-27T14:34:12;20.80;77.70
29551;DHT22;16488;52.396;10.696;2023-05-27T14:36:38;20.80;80.90
29551;DHT22;16488;52.396;10.696;2023-05-27T14:39:03;20.80;80.80
29551;DHT22;16488;52.396;10.696;2023-05-27T14:41:32;20.90;79.50
29551;DHT22;16488;52.396;10.696;2023-05-27T14:43:58;20.90;79.30
29551;DHT22;16488;52.396;10.696;2023-05-27T14:46:24;21.00;77.80
29551;DHT22;16488;52.396;10.696;2023-05-27T14:48:49;21.20;80.30
29551;DHT22;16488;52.396;10.696;2023-05-27T14:51:15;21.00;75.40
29551;DHT22;16488;52.396;10.696;2023-05-27T14:53:41;20.90;77.70
29551;DHT22;16488;52.396;10.696;2023-05-27T14:56:07;20.90;78.10
29551;DHT22;16488;52.396;10.696;2023-05-27T14:58:32;20.90;80.30
29551;DHT22;16488;52.396;10.696;2023-05-27T15:00:58;20.90;78.60
29551;DHT22;16488;52.396;10.696;2023-05-27T15:03:23;21.00;80.40
29551;DHT22;16488;52.396;10.696;2023-05-27T15:05:49;21.10;80.30
29551;DHT22;16488;52.396;10.696;2023-05-27T15:08:17;21.20;79.60
29551;DHT22;16488;52.396;10.696;2023-05-27T15:10:43;21.20;76.10
29551;DHT22;16488;52.396;10.696;2023-05-27T15:13:09;21.20;77.70
29551;DHT22;16488;52.396;10.696;2023-05-27T15:15:37;21.10;75.10
29551;DHT22;16488;52.396;10.696;2023-05-27T15:18:05;21.10;76.30
29551;DHT22;16488;52.396;10.696;2023-05-27T15:20:33;21.00;77.30
29551;DHT22;16488;52.396;10.696;2023-05-27T15:22:58;21.00;77.50